sensor_id;sensor_type;location;lat;lon;timestamp;temperature;humidity
9537;DHT22;4807;48.024;11.726;2023-04-01T00:01:25;7.20;99.90
9537;DHT22;4807;48.024;11.726;2023-04-01T00:04:37;7.10;99.90
9537;DHT22;4807;48.024;11.726;2023-04-01T00:07:45;7.00;99.90
9537;DHT22;4807;48.024;11.726;2023-04-01T00:10:54;6.90;99.90
9537;DHT22;4807;48.024;11.726;2023-04-01T00:14:04;6.80;99.90
9537;DHT22;4807;48.024;11.726;2023-04-01T00:17:12;6.80;99.90
9537;DHT22;4807;48.024;11.726;2023-04-01T00:20:22;6.80;99.90
9537;DHT22;4807;48.024;11.726;2023-04-01T00:23:31;6.70;99.90
9537;DHT22;4807;48.024;11.726;2023-04-01T00:26:39;6.80;99.90
9537;DHT22;4807;48.024;11.726;2023-04-01T00:29:49;6.70;99.90
9537;DHT22;4807;48.024;11.726;2023-04-01T00:32:57;6.70;99.90
9537;DHT22;4807;48.024;11.726;2023-04-01T00:36:08;6.70;99.90
9537;DHT22;4807;48.024;11.726;2023-04-01T00:39:18;6.70;99.90
9537;DHT22;4807;48.024;11.726;2023-04-01T00:42:26;6.70;99.90
9537;DHT22;4807;48.024;11.726;2023-04-01T00:45:37;6.60;99.90
9537;DHT22;4807;48.024;11.726;2023-04-01T00:48:50;6.60;99.90
9537;DHT22;4807;48.024;11.726;2023-04-01T00:52:04;6.60;99.90
9537;DHT22;4807;48.024;11.726;2023-04-01T00:55:15;6.60;99.90
9537;DHT22;4807;48.024;11.726;2023-04-01T00:58:29;6.60;99.90
9537;DHT22;4807;48.024;11.726;2023-04-01T01:01:41;6.50;99.90
9537;DHT22;4807;48.024;11.726;2023-04-01T01:04:50;6.60;99.90
9537;DHT22;4807;48.024;11.726;2023-04-01T01:08:03;6.60;99.90
9537;DHT22;4807;48.024;11.726;2023-04-01T01:11:25;6.60;99.90
9537;DHT22;4807;48.024;11.726;2023-04-01T01:15:00;6.60;99.90
9537;DHT22;4807;48.024;11.726;2023-04-01T01:18:19;6.70;99.90
9537;DHT22;4807;48.024;11.726;2023-04-01T01:21:56;6.80;99.90
9537;DHT22;4807;48.024;11.726;2023-04-01T01:25:25;6.80;99.90
9537;DHT22;4807;48.024;11.726;2023-04-01T01:28:47;6.80;99.90
9537;DHT22;4807;48.024;11.726;2023-04-01T01:32:15;7.00;99.90
9537;DHT22;4807;48.024;11.726;2023-04-01T01:35:39;7.00;99.90
9537;DHT22;4807;48.024;11.726;2023-04-01T01:38:57;7.00;99.90
9537;DHT22;4807;48.024;11.726;2023-04-01T01:42:10;7.10;99.90
9537;DHT22;4807;48.024;11.726;2023-04-01T01:45:25;7.10;99.90
9537;DHT22;4807;48.024;11.726;2023-04-01T01:48:35;7.10;99.90
9537;DHT22;4807;48.024;11.726;2023-04-01T01:51:46;7.00;99.90
9537;DHT22;4807;48.024;11.726;2023-04-01T01:54:56;7.10;99.90
9537;DHT22;4807;48.024;11.726;2023-04-01T01:58:16;7.00;99.90
9537;DHT22;4807;48.024;11.726;2023-04-01T02:01:29;6.90;99.90
9537;DHT22;4807;48.024;11.726;2023-04-01T02:04:48;6.90;99.90
9537;DHT22;4807;48.024;11.726;2023-04-01T02:08:05;6.90;99.90
9537;DHT22;4807;48.024;11.726;2023-04-01T02:11:19;6.90;99.90
9537;DHT22;4807;48.024;11.726;2023-04-01T02:14:38;6.90;99.90
9537;DHT22;4807;48.024;11.726;2023-04-01T02:17:50;6.90;99.90
9537;DHT22;4807;48.024;11.726;2023-04-01T02:20:59;6.90;99.90
9537;DHT22;4807;48.024;11.726;2023-04-01T02:24:12;6.90;99.90
9537;DHT22;4807;48.024;11.726;2023-04-01T02:27:23;7.00;99.90
9537;DHT22;4807;48.024;11.726;2023-04-01T02:30:34;7.00;99.90
9537;DHT22;4807;48.024;11.726;2023-04-01T02:33:45;6.90;99.90
9537;DHT22;4807;48.024;11.726;2023-04-01T02:36:55;6.80;99.90
9537;DHT22;4807;48.024;11.726;2023-04-01T02:40:08;7.00;99.90
9537;DHT22;4807;48.024;11.726;2023-04-01T02:43:19;7.00;99.90
9537;DHT22;4807;48.024;11.726;2023-04-01T02:46:28;7.00;99.90
9537;DHT22;4807;48.024;11.726;2023-04-01T02:49:36;7.00;99.90
9537;DHT22;4807;48.024;11.726;2023-04-01T02:52:44;7.00;99.90
9537;DHT22;4807;48.024;11.726;2023-04-01T02:55:54;7.10;99.90
9537;DHT22;4807;48.024;11.726;2023-04-01T02:59:07;7.10;99.90
9537;DHT22;4807;48.024;11.726;2023-04-01T03:02:16;7.10;99.90
9537;DHT22;4807;48.024;11.726;2023-04-01T03:05:24;7.10;99.90
9537;DHT22;4807;48.024;11.726;2023-04-01T03:08:33;7.00;99.90
9537;DHT22;4807;48.024;11.726;2023-04-01T03:11:43;7.00;99.90
9537;DHT22;4807;48.024;11.726;2023-04-01T03:14:51;6.90;99.90
9537;DHT22;4807;48.024;11.726;2023-04-01T03:17:59;6.80;99.90
9537;DHT22;4807;48.024;11.726;2023-04-01T03:21:15;6.70;99.90
9537;DHT22;4807;48.024;11.726;2023-04-01T03:24:24;6.70;99.90
9537;DHT22;4807;48.024;11.726;2023-04-01T03:27:34;6.70;99.90
9537;DHT22;4807;48.024;11.726;2023-04-01T03:30:43;6.70;99.90
9537;DHT22;4807;48.024;11.726;2023-04-01T03:33:51;6.70;99.90
9537;DHT22;4807;48.024;11.726;2023-04-01T03:37:00;6.70;99.90
9537;DHT22;4807;48.024;11.726;2023-04-01T03:40:09;6.80;99.90
9537;DHT22;4807;48.024;11.726;2023-04-01T03:43:19;6.70;99.90
9537;DHT22;4807;48.024;11.726;2023-04-01T03:46:28;6.70;99.90
9537;DHT22;4807;48.024;11.726;2023-04-01T03:49:37;6.70;99.90
9537;DHT22;4807;48.024;11.726;2023-04-01T03:52:45;6.60;99.90
9537;DHT22;4807;48.024;11.726;2023-04-01T03:55:53;6.50;99.90
9537;DHT22;4807;48.024;11.726;2023-04-01T03:59:05;6.40;99.90
9537;DHT22;4807;48.024;11.726;2023-04-01T04:02:14;6.50;99.90
9537;DHT22;4807;48.024;11.726;2023-04-01T04:05:23;6.30;99.90
9537;DHT22;4807;48.024;11.726;2023-04-01T04:08:32;6.40;99.90
9537;DHT22;4807;48.024;11.726;2023-04-01T04:11:40;6.40;99.90
9537;DHT22;4807;48.024;11.726;2023-04-01T04:14:50;6.40;99.90
9537;DHT22;4807;48.024;11.726;2023-04-01T04:17:58;6.30;99.90
9537;DHT22;4807;48.024;11.726;2023-04-01T04:21:10;6.10;99.90
9537;DHT22;4807;48.024;11.726;2023-04-01T04:24:20;6.10;99.90
9537;DHT22;4807;48.024;11.726;2023-04-01T04:27:41;6.20;99.90
9537;DHT22;4807;48.024;11.726;2023-04-01T04:30:53;6.20;99.90
9537;DHT22;4807;48.024;11.726;2023-04-01T04:34:01;6.30;99.90
9537;DHT22;4807;48.024;11.726;2023-04-01T04:37:13;6.40;99.90
9537;DHT22;4807;48.024;11.726;2023-04-01T04:40:21;6.40;99.90
9537;DHT22;4807;48.024;11.726;2023-04-01T04:43:30;6.50;99.90
9537;DHT22;4807;48.024;11.726;2023-04-01T04:46:40;6.50;99.90
9537;DHT22;4807;48.024;11.726;2023-04-01T04:49:53;6.60;99.90
9537;DHT22;4807;48.024;11.726;2023-04-01T04:58:20;6.50;99.90
9537;DHT22;4807;48.024;11.726;2023-04-01T05:01:29;6.60;99.90
9537;DHT22;4807;48.024;11.726;2023-04-01T05:04:39;6.60;99.90
9537;DHT22;4807;48.024;11.726;2023-04-01T05:07:49;6.70;99.90
9537;DHT22;4807;48.024;11.726;2023-04-01T05:10:59;6.70;99.90
9537;DHT22;4807;48.024;11.726;2023-04-01T05:14:12;6.70;99.90
9537;DHT22;4807;48.024;11.726;2023-04-01T05:17:24;6.80;99.90
9537;DHT22;4807;48.024;11.726;2023-04-01T05:20:35;6.80;99.90
9537;DHT22;4807;48.024;11.726;2023-04-01T05:23:43;7.00;99.90
9537;DHT22;4807;48.024;11.726;2023-04-01T05:26:51;7.00;99.90
9537;DHT22;4807;48.024;11.726;2023-04-01T05:30:03;7.10;99.90
9537;DHT22;4807;48.024;11.726;2023-04-01T05:33:36;7.10;99.90
9537;DHT22;4807;48.024;11.726;2023-04-01T05:36:46;7.30;99.90
9537;DHT22;4807;48.024;11.726;2023-04-01T05:39:55;7.30;99.90
9537;DHT22;4807;48.024;11.726;2023-04-01T05:43:05;7.20;99.90
9537;DHT22;4807;48.024;11.726;2023-04-01T05:46:14;7.40;99.90
9537;DHT22;4807;48.024;11.726;2023-04-01T05:49:33;7.40;99.90
9537;DHT22;4807;48.024;11.726;2023-04-01T05:52:44;7.50;99.90
9537;DHT22;4807;48.024;11.726;2023-04-01T05:55:53;7.60;99.90
9537;DHT22;4807;48.024;11.726;2023-04-01T05:59:03;7.80;99.90
9537;DHT22;4807;48.024;11.726;2023-04-01T06:02:11;7.80;99.90
9537;DHT22;4807;48.024;11.726;2023-04-01T06:05:22;7.80;99.90
9537;DHT22;4807;48.024;11.726;2023-04-01T06:08:33;8.20;99.90
9537;DHT22;4807;48.024;11.726;2023-04-01T06:12:05;8.50;99.90
9537;DHT22;4807;48.024;11.726;2023-04-01T06:16:00;8.70;98.50
9537;DHT22;4807;48.024;11.726;2023-04-01T06:19:34;8.50;98.50
9537;DHT22;4807;48.024;11.726;2023-04-01T06:23:19;8.50;98.90
9537;DHT22;4807;48.024;11.726;2023-04-01T06:26:51;8.50;98.80
9537;DHT22;4807;48.024;11.726;2023-04-01T06:30:11;8.30;98.50
9537;DHT22;4807;48.024;11.726;2023-04-01T06:33:52;8.30;98.70
9537;DHT22;4807;48.024;11.726;2023-04-01T06:37:24;8.40;98.90
9537;DHT22;4807;48.024;11.726;2023-04-01T06:41:06;8.50;98.50
9537;DHT22;4807;48.024;11.726;2023-04-01T06:44:37;8.40;98.40
9537;DHT22;4807;48.024;11.726;2023-04-01T06:48:29;8.60;98.70
9537;DHT22;4807;48.024;11.726;2023-04-01T06:52:23;9.10;98.10
9537;DHT22;4807;48.024;11.726;2023-04-01T06:55:57;9.60;96.50
9537;DHT22;4807;48.024;11.726;2023-04-01T06:59:18;10.20;95.10
9537;DHT22;4807;48.024;11.726;2023-04-01T07:02:36;10.80;93.80
9537;DHT22;4807;48.024;11.726;2023-04-01T07:05:49;10.90;93.20
9537;DHT22;4807;48.024;11.726;2023-04-01T07:09:02;11.00;92.80
9537;DHT22;4807;48.024;11.726;2023-04-01T07:12:41;10.80;93.40
9537;DHT22;4807;48.024;11.726;2023-04-01T07:16:18;8.80;92.70
9537;DHT22;4807;48.024;11.726;2023-04-01T07:19:33;10.10;93.80
9537;DHT22;4807;48.024;11.726;2023-04-01T07:22:50;9.70;94.40
9537;DHT22;4807;48.024;11.726;2023-04-01T07:26:14;9.60;94.90
9537;DHT22;4807;48.024;11.726;2023-04-01T07:30:01;9.60;95.10
9537;DHT22;4807;48.024;11.726;2023-04-01T07:33:14;10.00;93.90
9537;DHT22;4807;48.024;11.726;2023-04-01T07:36:34;10.00;94.40
9537;DHT22;4807;48.024;11.726;2023-04-01T07:39:54;9.80;94.50
9537;DHT22;4807;48.024;11.726;2023-04-01T07:43:34;9.00;93.90
9537;DHT22;4807;48.024;11.726;2023-04-01T07:47:34;10.10;93.90
9537;DHT22;4807;48.024;11.726;2023-04-01T07:51:00;10.30;94.00
9537;DHT22;4807;48.024;11.726;2023-04-01T07:54:17;10.50;93.10
9537;DHT22;4807;48.024;11.726;2023-04-01T07:57:34;10.30;93.10
9537;DHT22;4807;48.024;11.726;2023-04-01T08:00:57;10.40;93.40
9537;DHT22;4807;48.024;11.726;2023-04-01T08:04:28;10.70;92.40
9537;DHT22;4807;48.024;11.726;2023-04-01T08:07:54;10.90;92.30
9537;DHT22;4807;48.024;11.726;2023-04-01T08:11:41;11.20;92.80
9537;DHT22;4807;48.024;11.726;2023-04-01T08:15:36;11.40;91.10
9537;DHT22;4807;48.024;11.726;2023-04-01T08:19:03;11.50;91.80
9537;DHT22;4807;48.024;11.726;2023-04-01T08:22:27;11.50;91.30
9537;DHT22;4807;48.024;11.726;2023-04-01T08:25:42;11.60;91.10
9537;DHT22;4807;48.024;11.726;2023-04-01T08:29:01;11.60;90.90
9537;DHT22;4807;48.024;11.726;2023-04-01T08:32:20;11.60;90.30
9537;DHT22;4807;48.024;11.726;2023-04-01T08:35:37;11.40;90.30
9537;DHT22;4807;48.024;11.726;2023-04-01T08:38:55;11.40;90.60
9537;DHT22;4807;48.024;11.726;2023-04-01T08:42:31;11.30;90.60
9537;DHT22;4807;48.024;11.726;2023-04-01T08:46:17;11.20;91.40
9537;DHT22;4807;48.024;11.726;2023-04-01T08:50:23;11.10;91.00
9537;DHT22;4807;48.024;11.726;2023-04-01T08:54:14;11.30;90.50
9537;DHT22;4807;48.024;11.726;2023-04-01T08:57:50;11.30;91.00
9537;DHT22;4807;48.024;11.726;2023-04-01T09:10:11;12.90;84.60
9537;DHT22;4807;48.024;11.726;2023-04-01T09:14:19;12.10;87.00
9537;DHT22;4807;48.024;11.726;2023-04-01T09:18:23;11.70;88.10
9537;DHT22;4807;48.024;11.726;2023-04-01T09:25:53;11.80;88.30
9537;DHT22;4807;48.024;11.726;2023-04-01T09:29:24;12.20;85.80
9537;DHT22;4807;48.024;11.726;2023-04-01T09:33:00;12.40;85.50
9537;DHT22;4807;48.024;11.726;2023-04-01T09:36:43;12.50;85.40
9537;DHT22;4807;48.024;11.726;2023-04-01T09:40:17;12.40;86.00
9537;DHT22;4807;48.024;11.726;2023-04-01T09:43:49;12.60;85.80
9537;DHT22;4807;48.024;11.726;2023-04-01T09:47:21;13.00;83.30
9537;DHT22;4807;48.024;11.726;2023-04-01T09:50:49;13.30;82.50
9537;DHT22;4807;48.024;11.726;2023-04-01T09:54:22;13.20;81.40
9537;DHT22;4807;48.024;11.726;2023-04-01T10:02:27;13.20;82.30
9537;DHT22;4807;48.024;11.726;2023-04-01T10:10:39;13.00;81.60
9537;DHT22;4807;48.024;11.726;2023-04-01T10:18:40;13.10;83.90
9537;DHT22;4807;48.024;11.726;2023-04-01T10:22:23;13.70;79.20
9537;DHT22;4807;48.024;11.726;2023-04-01T10:26:25;13.30;81.50
9537;DHT22;4807;48.024;11.726;2023-04-01T10:31:09;13.00;80.40
9537;DHT22;4807;48.024;11.726;2023-04-01T10:34:56;12.90;81.20
9537;DHT22;4807;48.024;11.726;2023-04-01T10:43:03;13.30;80.30
9537;DHT22;4807;48.024;11.726;2023-04-01T10:54:43;12.90;82.20
9537;DHT22;4807;48.024;11.726;2023-04-01T10:58:45;12.90;80.80
9537;DHT22;4807;48.024;11.726;2023-04-01T11:07:28;12.40;83.40
9537;DHT22;4807;48.024;11.726;2023-04-01T11:15:36;12.30;84.70
9537;DHT22;4807;48.024;11.726;2023-04-01T11:19:24;12.20;85.30
9537;DHT22;4807;48.024;11.726;2023-04-01T11:27:06;11.80;89.10
9537;DHT22;4807;48.024;11.726;2023-04-01T11:30:44;11.80;89.30
9537;DHT22;4807;48.024;11.726;2023-04-01T11:34:14;11.80;88.00
9537;DHT22;4807;48.024;11.726;2023-04-01T11:37:49;11.70;88.20
9537;DHT22;4807;48.024;11.726;2023-04-01T11:41:34;11.50;89.50
9537;DHT22;4807;48.024;11.726;2023-04-01T11:45:22;11.50;89.30
9537;DHT22;4807;48.024;11.726;2023-04-01T11:48:56;11.60;90.10
9537;DHT22;4807;48.024;11.726;2023-04-01T11:56:56;11.30;89.90
9537;DHT22;4807;48.024;11.726;2023-04-01T12:00:41;11.50;91.10
9537;DHT22;4807;48.024;11.726;2023-04-01T12:04:36;11.20;92.60
9537;DHT22;4807;48.024;11.726;2023-04-01T12:08:03;10.60;94.80
9537;DHT22;4807;48.024;11.726;2023-04-01T12:11:24;10.20;97.20
9537;DHT22;4807;48.024;11.726;2023-04-01T12:14:43;10.10;96.60
9537;DHT22;4807;48.024;11.726;2023-04-01T12:18:10;10.30;96.80
9537;DHT22;4807;48.024;11.726;2023-04-01T12:21:31;10.40;96.30
9537;DHT22;4807;48.024;11.726;2023-04-01T12:24:46;10.20;96.50
9537;DHT22;4807;48.024;11.726;2023-04-01T12:28:06;10.10;95.30
9537;DHT22;4807;48.024;11.726;2023-04-01T12:31:31;9.90;96.50
9537;DHT22;4807;48.024;11.726;2023-04-01T12:38:42;9.80;98.50
9537;DHT22;4807;48.024;11.726;2023-04-01T12:42:07;9.80;98.30
9537;DHT22;4807;48.024;11.726;2023-04-01T12:45:42;9.60;98.50
9537;DHT22;4807;48.024;11.726;2023-04-01T12:49:15;9.60;98.90
9537;DHT22;4807;48.024;11.726;2023-04-01T12:52:45;9.40;99.00
9537;DHT22;4807;48.024;11.726;2023-04-01T12:56:14;9.30;99.90
9537;DHT22;4807;48.024;11.726;2023-04-01T12:59:58;9.30;99.90
9537;DHT22;4807;48.024;11.726;2023-04-01T13:07:39;9.30;99.90
9537;DHT22;4807;48.024;11.726;2023-04-01T13:11:20;9.20;99.90
9537;DHT22;4807;48.024;11.726;2023-04-01T13:15:09;9.10;99.90
9537;DHT22;4807;48.024;11.726;2023-04-01T13:18:33;9.10;99.90
9537;DHT22;4807;48.024;11.726;2023-04-01T13:21:55;9.00;99.90
9537;DHT22;4807;48.024;11.726;2023-04-01T13:25:17;9.00;99.90
9537;DHT22;4807;48.024;11.726;2023-04-01T13:28:39;8.90;99.90
9537;DHT22;4807;48.024;11.726;2023-04-01T13:32:06;8.80;99.90
9537;DHT22;4807;48.024;11.726;2023-04-01T13:35:34;8.80;99.90
9537;DHT22;4807;48.024;11.726;2023-04-01T13:39:02;8.70;99.90
9537;DHT22;4807;48.024;11.726;2023-04-01T13:42:25;8.60;99.90
9537;DHT22;4807;48.024;11.726;2023-04-01T13:45:50;8.60;99.90
9537;DHT22;4807;48.024;11.726;2023-04-01T13:49:35;8.60;99.90
9537;DHT22;4807;48.024;11.726;2023-04-01T13:53:22;8.60;99.90
9537;DHT22;4807;48.024;11.726;2023-04-01T13:56:51;8.60;99.90
9537;DHT22;4807;48.024;11.726;2023-04-01T14:00:22;8.50;99.90
9537;DHT22;4807;48.024;11.726;2023-04-01T14:07:54;8.60;99.90
9537;DHT22;4807;48.024;11.726;2023-04-01T14:11:16;8.50;99.90
9537;DHT22;4807;48.024;11.726;2023-04-01T14:14:37;8.50;99.90
9537;DHT22;4807;48.024;11.726;2023-04-01T14:31:23;8.80;99.90
9537;DHT22;4807;48.024;11.726;2023-04-01T14:34:58;8.80;99.90
9537;DHT22;4807;48.024;11.726;2023-04-01T14:38:34;8.90;99.90
9537;DHT22;4807;48.024;11.726;2023-04-01T14:42:08;8.90;99.90
9537;DHT22;4807;48.024;11.726;2023-04-01T14:45:55;8.90;99.90
9537;DHT22;4807;48.024;11.726;2023-04-01T14:49:20;9.00;99.90
9537;DHT22;4807;48.024;11.726;2023-04-01T14:52:37;11.80;99.90
9537;DHT22;4807;48.024;11.726;2023-04-01T14:55:50;9.20;99.90
9537;DHT22;4807;48.024;11.726;2023-04-01T14:59:00;9.20;99.90
9537;DHT22;4807;48.024;11.726;2023-04-01T15:02:27;9.20;99.90
9537;DHT22;4807;48.024;11.726;2023-04-01T15:05:57;9.20;99.90
9537;DHT22;4807;48.024;11.726;2023-04-01T15:09:28;9.20;99.90
9537;DHT22;4807;48.024;11.726;2023-04-01T15:12:52;9.10;99.90
9537;DHT22;4807;48.024;11.726;2023-04-01T15:16:19;9.00;99.90
9537;DHT22;4807;48.024;11.726;2023-04-01T15:19:41;9.10;99.90
9537;DHT22;4807;48.024;11.726;2023-04-01T15:23:16;9.20;99.90
9537;DHT22;4807;48.024;11.726;2023-04-01T15:26:47;9.20;99.90
9537;DHT22;4807;48.024;11.726;2023-04-01T15:30:24;9.10;99.90
9537;DHT22;4807;48.024;11.726;2023-04-01T15:33:49;9.10;99.90
9537;DHT22;4807;48.024;11.726;2023-04-01T15:37:14;9.10;99.90
9537;DHT22;4807;48.024;11.726;2023-04-01T15:40:32;9.10;99.90
9537;DHT22;4807;48.024;11.726;2023-04-01T15:43:52;9.10;99.90
9537;DHT22;4807;48.024;11.726;2023-04-01T15:47:01;9.20;99.90
9537;DHT22;4807;48.024;11.726;2023-04-01T15:50:40;9.30;99.90
9537;DHT22;4807;48.024;11.726;2023-04-01T15:58:26;9.60;99.90
9537;DHT22;4807;48.024;11.726;2023-04-01T16:02:07;9.60;99.90
9537;DHT22;4807;48.024;11.726;2023-04-01T16:05:37;9.50;99.90
9537;DHT22;4807;48.024;11.726;2023-04-01T16:09:12;9.60;99.90
9537;DHT22;4807;48.024;11.726;2023-04-01T16:12:40;9.60;99.90
9537;DHT22;4807;48.024;11.726;2023-04-01T16:16:04;9.60;99.90
9537;DHT22;4807;48.024;11.726;2023-04-01T16:19:44;9.60;99.90
9537;DHT22;4807;48.024;11.726;2023-04-01T16:23:02;9.50;99.90
9537;DHT22;4807;48.024;11.726;2023-04-01T16:26:24;9.40;99.90
9537;DHT22;4807;48.024;11.726;2023-04-01T16:29:43;9.30;99.90
9537;DHT22;4807;48.024;11.726;2023-04-01T16:33:00;9.30;99.90
9537;DHT22;4807;48.024;11.726;2023-04-01T16:36:22;9.10;99.90
9537;DHT22;4807;48.024;11.726;2023-04-01T16:39:43;9.00;99.90
9537;DHT22;4807;48.024;11.726;2023-04-01T16:43:06;8.90;99.90
9537;DHT22;4807;48.024;11.726;2023-04-01T16:46:38;8.80;99.90
9537;DHT22;4807;48.024;11.726;2023-04-01T16:49:52;8.80;99.90
9537;DHT22;4807;48.024;11.726;2023-04-01T16:53:14;8.80;99.90
9537;DHT22;4807;48.024;11.726;2023-04-01T16:56:36;8.70;99.90
9537;DHT22;4807;48.024;11.726;2023-04-01T16:59:54;8.50;99.90
9537;DHT22;4807;48.024;11.726;2023-04-01T17:03:12;8.40;99.90
9537;DHT22;4807;48.024;11.726;2023-04-01T17:06:33;8.10;99.90
9537;DHT22;4807;48.024;11.726;2023-04-01T17:10:08;8.40;99.90
9537;DHT22;4807;48.024;11.726;2023-04-01T17:13:47;8.40;99.90
9537;DHT22;4807;48.024;11.726;2023-04-01T17:17:29;8.30;99.90
9537;DHT22;4807;48.024;11.726;2023-04-01T17:20:52;8.30;99.90
9537;DHT22;4807;48.024;11.726;2023-04-01T17:24:11;8.40;99.90
9537;DHT22;4807;48.024;11.726;2023-04-01T17:27:42;8.40;99.60
9537;DHT22;4807;48.024;11.726;2023-04-01T17:31:04;8.30;99.10
9537;DHT22;4807;48.024;11.726;2023-04-01T17:34:27;8.30;99.40
9537;DHT22;4807;48.024;11.726;2023-04-01T17:37:55;8.30;99.30
9537;DHT22;4807;48.024;11.726;2023-04-01T17:41:21;8.30;99.20
9537;DHT22;4807;48.024;11.726;2023-04-01T17:44:51;8.30;99.10
9537;DHT22;4807;48.024;11.726;2023-04-01T17:48:18;8.20;99.70
9537;DHT22;4807;48.024;11.726;2023-04-01T17:51:35;8.30;99.90
9537;DHT22;4807;48.024;11.726;2023-04-01T17:54:57;8.20;99.90
9537;DHT22;4807;48.024;11.726;2023-04-01T17:58:29;8.20;99.90
9537;DHT22;4807;48.024;11.726;2023-04-01T18:01:54;8.10;99.90
9537;DHT22;4807;48.024;11.726;2023-04-01T18:05:26;8.10;99.60
9537;DHT22;4807;48.024;11.726;2023-04-01T18:08:54;8.20;99.00
9537;DHT22;4807;48.024;11.726;2023-04-01T18:12:12;9.40;99.80
9537;DHT22;4807;48.024;11.726;2023-04-01T18:15:33;8.20;99.20
9537;DHT22;4807;48.024;11.726;2023-04-01T18:18:58;8.20;99.20
9537;DHT22;4807;48.024;11.726;2023-04-01T18:22:19;8.30;99.00
9537;DHT22;4807;48.024;11.726;2023-04-01T18:25:33;8.40;98.90
9537;DHT22;4807;48.024;11.726;2023-04-01T18:28:52;8.30;98.70
9537;DHT22;4807;48.024;11.726;2023-04-01T18:32:23;8.30;99.10
9537;DHT22;4807;48.024;11.726;2023-04-01T18:35:48;8.30;99.60
9537;DHT22;4807;48.024;11.726;2023-04-01T18:39:04;8.30;99.60
9537;DHT22;4807;48.024;11.726;2023-04-01T18:42:28;8.20;99.80
9537;DHT22;4807;48.024;11.726;2023-04-01T18:45:45;8.20;99.90
9537;DHT22;4807;48.024;11.726;2023-04-01T18:49:07;8.20;99.90
9537;DHT22;4807;48.024;11.726;2023-04-01T18:52:28;8.10;99.90
9537;DHT22;4807;48.024;11.726;2023-04-01T18:55:47;8.10;99.90
9537;DHT22;4807;48.024;11.726;2023-04-01T18:59:04;8.10;99.90
9537;DHT22;4807;48.024;11.726;2023-04-01T19:02:25;8.00;99.90
9537;DHT22;4807;48.024;11.726;2023-04-01T19:05:41;8.00;99.90
9537;DHT22;4807;48.024;11.726;2023-04-01T19:08:53;8.00;99.90
9537;DHT22;4807;48.024;11.726;2023-04-01T19:15:52;7.80;99.90
9537;DHT22;4807;48.024;11.726;2023-04-01T19:19:16;7.80;99.90
9537;DHT22;4807;48.024;11.726;2023-04-01T19:22:43;7.80;99.90
9537;DHT22;4807;48.024;11.726;2023-04-01T19:26:09;7.80;99.90
9537;DHT22;4807;48.024;11.726;2023-04-01T19:29:31;7.70;99.90
9537;DHT22;4807;48.024;11.726;2023-04-01T19:32:54;7.70;99.90
9537;DHT22;4807;48.024;11.726;2023-04-01T19:36:17;7.70;99.90
9537;DHT22;4807;48.024;11.726;2023-04-01T19:39:47;7.70;99.90
9537;DHT22;4807;48.024;11.726;2023-04-01T19:43:12;7.70;99.90
9537;DHT22;4807;48.024;11.726;2023-04-01T19:46:33;7.70;99.90
9537;DHT22;4807;48.024;11.726;2023-04-01T19:49:53;7.60;99.90
9537;DHT22;4807;48.024;11.726;2023-04-01T19:53:19;7.60;99.90
9537;DHT22;4807;48.024;11.726;2023-04-01T19:56:39;7.50;99.90
9537;DHT22;4807;48.024;11.726;2023-04-01T20:00:04;7.50;99.90
9537;DHT22;4807;48.024;11.726;2023-04-01T20:03:34;7.50;99.90
9537;DHT22;4807;48.024;11.726;2023-04-01T20:06:54;7.50;99.90
9537;DHT22;4807;48.024;11.726;2023-04-01T20:10:10;7.50;99.90
9537;DHT22;4807;48.024;11.726;2023-04-01T20:13:29;7.50;99.90
9537;DHT22;4807;48.024;11.726;2023-04-01T20:17:15;7.60;99.90
9537;DHT22;4807;48.024;11.726;2023-04-01T20:20:28;7.50;99.90
9537;DHT22;4807;48.024;11.726;2023-04-01T20:23:43;7.50;99.90
9537;DHT22;4807;48.024;11.726;2023-04-01T20:27:02;7.50;99.90
9537;DHT22;4807;48.024;11.726;2023-04-01T20:30:46;7.60;99.90
9537;DHT22;4807;48.024;11.726;2023-04-01T20:34:30;7.40;99.90
9537;DHT22;4807;48.024;11.726;2023-04-01T20:38:11;7.40;99.90
9537;DHT22;4807;48.024;11.726;2023-04-01T20:41:39;7.30;99.90
9537;DHT22;4807;48.024;11.726;2023-04-01T20:45:01;7.50;99.90
9537;DHT22;4807;48.024;11.726;2023-04-01T20:48:47;7.40;99.90
9537;DHT22;4807;48.024;11.726;2023-04-01T20:52:25;7.40;99.90
9537;DHT22;4807;48.024;11.726;2023-04-01T21:00:11;7.40;99.90
9537;DHT22;4807;48.024;11.726;2023-04-01T21:03:41;7.30;99.90
9537;DHT22;4807;48.024;11.726;2023-04-01T21:07:14;7.20;99.90
9537;DHT22;4807;48.024;11.726;2023-04-01T21:10:38;7.40;99.90
9537;DHT22;4807;48.024;11.726;2023-04-01T21:13:59;7.30;99.90
9537;DHT22;4807;48.024;11.726;2023-04-01T21:17:34;7.30;99.90
9537;DHT22;4807;48.024;11.726;2023-04-01T21:21:03;7.30;99.90
9537;DHT22;4807;48.024;11.726;2023-04-01T21:24:40;7.20;99.90
9537;DHT22;4807;48.024;11.726;2023-04-01T21:28:12;7.20;99.90
9537;DHT22;4807;48.024;11.726;2023-04-01T21:31:45;7.20;99.90
9537;DHT22;4807;48.024;11.726;2023-04-01T21:35:08;7.30;99.90
9537;DHT22;4807;48.024;11.726;2023-04-01T21:38:40;7.30;99.90
9537;DHT22;4807;48.024;11.726;2023-04-01T21:42:10;7.40;99.90
9537;DHT22;4807;48.024;11.726;2023-04-01T21:45:52;7.30;99.90
9537;DHT22;4807;48.024;11.726;2023-04-01T21:49:30;7.30;99.90
9537;DHT22;4807;48.024;11.726;2023-04-01T22:01:02;7.30;99.90
9537;DHT22;4807;48.024;11.726;2023-04-01T22:04:40;7.20;99.90
9537;DHT22;4807;48.024;11.726;2023-04-01T22:08:02;7.30;99.90
9537;DHT22;4807;48.024;11.726;2023-04-01T22:11:23;7.30;99.90
9537;DHT22;4807;48.024;11.726;2023-04-01T22:14:45;7.40;99.90
9537;DHT22;4807;48.024;11.726;2023-04-01T22:18:09;7.40;99.90
9537;DHT22;4807;48.024;11.726;2023-04-01T22:21:33;7.40;99.90
9537;DHT22;4807;48.024;11.726;2023-04-01T22:24:59;7.50;99.90
9537;DHT22;4807;48.024;11.726;2023-04-01T22:28:18;7.40;99.90
9537;DHT22;4807;48.024;11.726;2023-04-01T22:31:36;7.40;99.90
9537;DHT22;4807;48.024;11.726;2023-04-01T22:34:56;7.40;99.90
9537;DHT22;4807;48.024;11.726;2023-04-01T22:38:18;7.30;99.90
9537;DHT22;4807;48.024;11.726;2023-04-01T22:41:47;7.30;99.90
9537;DHT22;4807;48.024;11.726;2023-04-01T22:45:28;7.40;99.90
9537;DHT22;4807;48.024;11.726;2023-04-01T22:48:49;7.30;99.90
9537;DHT22;4807;48.024;11.726;2023-04-01T22:52:14;7.30;99.90
9537;DHT22;4807;48.024;11.726;2023-04-01T22:55:34;7.40;99.90
9537;DHT22;4807;48.024;11.726;2023-04-01T22:59:06;7.60;99.90
9537;DHT22;4807;48.024;11.726;2023-04-01T23:02:22;7.50;99.90
9537;DHT22;4807;48.024;11.726;2023-04-01T23:05:35;7.40;99.90
9537;DHT22;4807;48.024;11.726;2023-04-01T23:09:10;7.40;99.90
9537;DHT22;4807;48.024;11.726;2023-04-01T23:12:21;7.40;99.90
9537;DHT22;4807;48.024;11.726;2023-04-01T23:15:34;7.40;99.90
9537;DHT22;4807;48.024;11.726;2023-04-01T23:18:50;7.40;99.90
9537;DHT22;4807;48.024;11.726;2023-04-01T23:22:08;7.40;99.90
9537;DHT22;4807;48.024;11.726;2023-04-01T23:25:38;7.40;99.90
9537;DHT22;4807;48.024;11.726;2023-04-01T23:28:55;7.50;99.90
9537;DHT22;4807;48.024;11.726;2023-04-01T23:32:14;7.40;99.90
9537;DHT22;4807;48.024;11.726;2023-04-01T23:35:25;7.50;99.90
9537;DHT22;4807;48.024;11.726;2023-04-01T23:38:36;7.40;99.90
9537;DHT22;4807;48.024;11.726;2023-04-01T23:41:50;7.40;99.90
9537;DHT22;4807;48.024;11.726;2023-04-01T23:45:02;7.40;99.90
9537;DHT22;4807;48.024;11.726;2023-04-01T23:48:22;7.40;99.90
9537;DHT22;4807;48.024;11.726;2023-04-01T23:51:37;7.40;99.90
9537;DHT22;4807;48.024;11.726;2023-04-01T23:54:52;7.30;99.90